Time;durP1;ratioP1;P1;durP2;ratioP2;P2;SDS_P1;SDS_P2;PMS_P1;PMS_P2;Temp;Humidity;BMP_temperature;BMP_pressure;BME280_temperature;BME280_humidity;BME280_pressure;Samples;Min_cycle;Max_cycle;Signal;HPM_P1;HPM_P2
2021/04/12 00:00:47;;;;;;;11.03;4.80;;;1.10;99.90;;;;;;5090772;28;20201;-81
2021/04/12 00:03:37;;;;;;;13.33;5.27;;;1.20;99.90;;;;;;5093112;28;20270;-79
2021/04/12 00:06:27;;;;;;;13.90;4.97;;;1.20;99.90;;;;;;5089276;28;20241;-80
2021/04/12 00:09:18;;;;;;;12.83;5.10;;;1.20;99.90;;;;;;5090790;28;20248;-80
2021/04/12 00:12:09;;;;;;;11.47;5.40;;;1.20;99.90;;;;;;5086806;28;20206;-81
2021/04/12 00:14:57;;;;;;;10.13;5.03;;;1.20;99.90;;;;;;5088162;28;20233;-79
2021/04/12 00:17:46;;;;;;;12.43;5.53;;;1.20;99.90;;;;;;5094036;28;20732;-79
2021/04/12 00:20:35;;;;;;;15.57;5.77;;;1.20;99.90;;;;;;5093661;28;20556;-80
2021/04/12 00:23:31;;;;;;;9.63;4.97;;;1.20;99.90;;;;;;5100874;28;20615;-79
2021/04/12 00:26:24;;;;;;;9.33;5.20;;;1.20;99.90;;;;;;5093144;28;20681;-79
2021/04/12 00:29:12;;;;;;;11.10;4.97;;;1.20;99.90;;;;;;5091850;28;20215;-80
2021/04/12 00:32:04;;;;;;;9.63;5.00;;;1.20;99.90;;;;;;5104686;28;20221;-79
2021/04/12 00:34:55;;;;;;;12.47;5.00;;;1.20;99.90;;;;;;5101451;28;20235;-80
2021/04/12 00:37:47;;;;;;;11.03;5.30;;;1.10;99.90;;;;;;5094188;28;20695;-79
2021/04/12 00:40:40;;;;;;;11.37;5.40;;;1.20;99.90;;;;;;5094700;28;20245;-80
2021/04/12 00:43:31;;;;;;;9.93;5.20;;;1.10;99.90;;;;;;5092455;28;20197;-79
2021/04/12 00:46:39;;;;;;;10.17;5.30;;;1.10;99.90;;;;;;5089109;28;20221;-80
2021/04/12 00:49:36;;;;;;;13.77;5.80;;;1.10;99.90;;;;;;5098216;28;20681;-81
2021/04/12 00:52:55;;;;;;;11.70;5.70;;;1.10;99.90;;;;;;5091291;28;20276;-79
2021/04/12 00:55:45;;;;;;;10.13;4.93;;;1.00;99.90;;;;;;5091925;28;20236;-80
2021/04/12 00:58:43;;;;;;;14.40;5.53;;;1.00;99.90;;;;;;5094168;28;20276;-80
2021/04/12 01:01:44;;;;;;;10.33;4.73;;;1.00;99.90;;;;;;5094060;28;20205;-81
2021/04/12 01:04:54;;;;;;;7.93;4.77;;;1.00;99.90;;;;;;5093520;28;20229;-80
2021/04/12 01:08:03;;;;;;;10.70;4.63;;;0.90;99.90;;;;;;5083398;28;20210;-81
2021/04/12 01:11:30;;;;;;;11.13;4.60;;;0.90;99.90;;;;;;5091372;28;20701;-80
2021/04/12 01:14:41;;;;;;;11.93;5.20;;;0.90;99.90;;;;;;5065190;28;20267;-81
2021/04/12 01:18:03;;;;;;;12.93;4.50;;;0.90;99.90;;;;;;5095633;28;20264;-79
2021/04/12 01:21:18;;;;;;;10.97;5.40;;;0.80;99.90;;;;;;5099703;28;20237;-81
2021/04/12 01:24:24;;;;;;;11.40;5.27;;;0.80;99.90;;;;;;5095477;28;20233;-80
2021/04/12 01:27:51;;;;;;;13.90;5.17;;;0.80;99.90;;;;;;5094249;28;20201;-79
2021/04/12 01:31:13;;;;;;;10.03;5.10;;;0.80;99.90;;;;;;5097479;28;20221;-78
2021/04/12 01:34:34;;;;;;;12.70;5.40;;;0.80;99.90;;;;;;5094975;28;20225;-80
2021/04/12 01:37:50;;;;;;;11.37;5.00;;;0.80;99.90;;;;;;5104076;28;20263;-81
2021/04/12 01:40:51;;;;;;;11.83;5.57;;;0.80;99.90;;;;;;5089365;28;20209;-80
2021/04/12 01:43:56;;;;;;;13.80;5.60;;;0.70;99.90;;;;;;5095592;28;20201;-80
2021/04/12 01:46:48;;;;;;;10.80;5.30;;;0.70;99.90;;;;;;5100745;28;20229;-80
2021/04/12 01:50:07;;;;;;;9.50;5.37;;;0.70;99.90;;;;;;5112255;28;20202;-81
2021/04/12 01:53:40;;;;;;;12.17;5.03;;;0.70;99.90;;;;;;5118581;28;20237;-82
2021/04/12 01:57:19;;;;;;;11.83;5.43;;;0.70;99.90;;;;;;5113915;28;20205;-79
2021/04/12 02:00:35;;;;;;;10.73;5.37;;;0.70;99.90;;;;;;5082818;28;20205;-81
2021/04/12 02:03:32;;;;;;;13.40;5.70;;;0.70;99.90;;;;;;5097464;28;20213;-82
2021/04/12 02:06:44;;;;;;;11.47;5.83;;;0.70;99.90;;;;;;5106794;28;20244;-82
2021/04/12 02:09:59;;;;;;;12.47;5.60;;;0.70;99.90;;;;;;5094593;28;20209;-83
2021/04/12 02:12:57;;;;;;;11.03;5.47;;;0.70;99.90;;;;;;5099084;28;20800;-83
2021/04/12 02:15:59;;;;;;;12.30;6.37;;;0.60;99.90;;;;;;5092353;28;20766;-82
2021/04/12 02:19:23;;;;;;;14.07;6.23;;;0.60;99.90;;;;;;5098350;28;20328;-80
2021/04/12 02:22:31;;;;;;;12.90;6.00;;;0.60;99.90;;;;;;5089458;28;20205;-84
2021/04/12 02:25:29;;;;;;;12.37;4.77;;;0.60;99.90;;;;;;5099844;28;20230;-82
2021/04/12 02:28:25;;;;;;;11.60;5.93;;;0.60;99.90;;;;;;5096206;28;20665;-82
2021/04/12 02:31:27;;;;;;;10.93;6.20;;;0.60;99.90;;;;;;5104569;28;20220;-82
2021/04/12 02:34:30;;;;;;;14.07;6.07;;;0.70;99.90;;;;;;5104573;28;20244;-83
2021/04/12 02:37:36;;;;;;;13.97;6.23;;;0.70;99.90;;;;;;5102918;28;20241;-84
2021/04/12 02:40:36;;;;;;;9.63;5.27;;;0.70;99.90;;;;;;5096674;28;20197;-82
2021/04/12 02:43:37;;;;;;;11.07;5.80;;;0.70;99.90;;;;;;5091461;28;20268;-84
2021/04/12 02:46:40;;;;;;;12.23;5.37;;;0.70;99.90;;;;;;5098996;28;20246;-81
2021/04/12 02:49:33;;;;;;;15.17;6.70;;;0.70;99.90;;;;;;5101164;28;20192;-82
2021/04/12 02:52:36;;;;;;;13.30;6.03;;;0.70;99.90;;;;;;5109845;28;20220;-83
2021/04/12 02:55:54;;;;;;;14.43;6.47;;;0.70;99.90;;;;;;5088508;28;20233;-82
2021/04/12 02:59:05;;;;;;;11.10;6.50;;;0.70;99.90;;;;;;5107822;28;20281;-83
2021/04/12 03:02:17;;;;;;;14.80;6.23;;;0.70;99.90;;;;;;5088776;28;20201;-81
2021/04/12 03:05:17;;;;;;;12.90;7.00;;;0.80;99.90;;;;;;5091515;28;20237;-84
2021/04/12 03:08:23;;;;;;;16.07;6.63;;;0.80;99.90;;;;;;5102229;28;20213;-81
2021/04/12 03:11:41;;;;;;;11.90;6.90;;;0.80;99.90;;;;;;5102450;28;20225;-82
2021/04/12 03:14:55;;;;;;;13.47;6.80;;;0.80;99.90;;;;;;5102647;28;20248;-83
2021/04/12 03:18:08;;;;;;;10.97;6.40;;;0.80;99.90;;;;;;5069324;28;20575;-83
2021/04/12 03:21:26;;;;;;;17.23;7.23;;;0.80;99.90;;;;;;5104691;28;20224;-83
2021/04/12 03:24:18;;;;;;;12.57;6.50;;;0.80;99.90;;;;;;5076903;28;20287;-83
2021/04/12 03:27:24;;;;;;;13.50;7.03;;;0.70;99.90;;;;;;5105151;28;20270;-80
2021/04/12 03:30:28;;;;;;;14.50;6.23;;;0.70;99.90;;;;;;5101100;28;20205;-82
2021/04/12 03:33:25;;;;;;;12.23;7.67;;;0.70;99.90;;;;;;5097316;28;20208;-81
2021/04/12 03:36:22;;;;;;;16.57;8.03;;;0.70;99.90;;;;;;5091407;28;20681;-83
2021/04/12 03:39:10;;;;;;;17.37;9.13;;;0.70;99.90;;;;;;5088759;28;20224;-82
2021/04/12 03:42:10;;;;;;;18.40;9.10;;;0.80;99.90;;;;;;5096753;28;20674;-83
2021/04/12 03:45:40;;;;;;;16.87;9.53;;;0.90;99.90;;;;;;5094849;28;20253;-84
2021/04/12 03:48:36;;;;;;;18.67;9.93;;;0.90;99.90;;;;;;5048098;28;20259;-81
2021/04/12 03:52:01;;;;;;;19.03;11.13;;;1.00;99.90;;;;;;5093856;28;20706;-82
2021/04/12 03:55:02;;;;;;;18.77;11.17;;;1.10;99.90;;;;;;5097777;28;20289;-82
2021/04/12 03:58:00;;;;;;;18.47;11.00;;;1.10;99.90;;;;;;5096835;28;20258;-81
2021/04/12 04:01:14;;;;;;;16.37;9.43;;;1.20;99.90;;;;;;5094155;28;20209;-83
2021/04/12 04:04:18;;;;;;;16.40;11.30;;;1.30;99.90;;;;;;5103965;28;20305;-81
2021/04/12 04:07:40;;;;;;;17.83;10.33;;;1.30;99.90;;;;;;5084008;28;20213;-81
2021/04/12 04:11:01;;;;;;;21.93;11.00;;;1.40;99.90;;;;;;5098409;28;20211;-82
2021/04/12 04:14:15;;;;;;;18.90;10.27;;;1.40;99.90;;;;;;5088022;28;20230;-81
2021/04/12 04:17:19;;;;;;;14.80;8.37;;;1.40;99.90;;;;;;5088987;28;20322;-82
2021/04/12 04:20:23;;;;;;;13.33;9.80;;;1.40;99.90;;;;;;5097300;28;20193;-80
2021/04/12 04:23:30;;;;;;;12.17;9.50;;;1.50;99.90;;;;;;5102173;28;20221;-81
2021/04/12 04:26:47;;;;;;;16.07;10.20;;;1.50;99.90;;;;;;5100157;28;20261;-82
2021/04/12 04:30:03;;;;;;;16.07;9.20;;;1.60;99.90;;;;;;5089327;28;20226;-80
2021/04/12 04:33:03;;;;;;;14.63;9.80;;;1.60;99.90;;;;;;5092334;28;20204;-81
2021/04/12 04:36:01;;;;;;;14.27;8.20;;;1.70;99.90;;;;;;5093621;28;20267;-81
2021/04/12 04:39:28;;;;;;;10.80;7.47;;;1.60;99.90;;;;;;5098638;28;20209;-83
2021/04/12 04:42:51;;;;;;;11.50;7.97;;;1.60;99.90;;;;;;5096510;28;20205;-82
2021/04/12 04:45:57;;;;;;;12.27;6.40;;;1.60;99.90;;;;;;5101757;28;20320;-83
2021/04/12 04:49:14;;;;;;;12.37;7.03;;;1.60;99.90;;;;;;5094373;28;20688;-82
2021/04/12 04:52:35;;;;;;;10.87;6.80;;;1.60;99.90;;;;;;5093329;28;20701;-81
2021/04/12 04:55:33;;;;;;;9.57;6.50;;;1.60;99.90;;;;;;5098693;28;20229;-83
2021/04/12 04:58:27;;;;;;;14.67;6.90;;;1.60;99.90;;;;;;5095877;28;20208;-82
2021/04/12 05:01:26;;;;;;;14.00;6.77;;;1.60;99.90;;;;;;5105711;28;20224;-83
2021/04/12 05:04:34;;;;;;;10.93;6.53;;;1.60;99.90;;;;;;5105154;28;20596;-82
2021/04/12 05:08:01;;;;;;;10.00;5.70;;;1.60;99.90;;;;;;5097238;28;20228;-82
2021/04/12 05:11:28;;;;;;;8.37;5.40;;;1.50;99.90;;;;;;5088309;28;20631;-82
2021/04/12 05:14:56;;;;;;;6.90;4.93;;;1.50;99.90;;;;;;5109937;28;20286;-83
2021/04/12 05:18:06;;;;;;;9.73;5.73;;;1.50;99.90;;;;;;5050623;28;20209;-83
2021/04/12 05:21:26;;;;;;;11.43;5.80;;;1.50;99.90;;;;;;5109511;28;20223;-82
2021/04/12 05:24:38;;;;;;;10.07;6.13;;;1.40;99.90;;;;;;5093305;28;20690;-84
2021/04/12 05:27:37;;;;;;;13.57;6.70;;;1.40;99.90;;;;;;5095236;28;20681;-82
2021/04/12 05:30:52;;;;;;;13.53;6.57;;;1.30;99.90;;;;;;5102422;28;20244;-81
2021/04/12 05:34:15;;;;;;;12.97;6.73;;;1.30;99.90;;;;;;5097493;28;20217;-82
2021/04/12 05:37:46;;;;;;;15.63;8.70;;;1.30;99.90;;;;;;5103462;28;20217;-80
2021/04/12 05:40:56;;;;;;;13.73;7.50;;;1.30;99.90;;;;;;5042627;28;20209;-79
2021/04/12 05:44:21;;;;;;;13.13;7.63;;;1.30;99.90;;;;;;5110244;28;20212;-80
2021/04/12 05:47:23;;;;;;;11.70;6.93;;;1.30;99.90;;;;;;5106068;28;20201;-79
2021/04/12 05:50:38;;;;;;;11.33;6.87;;;1.30;99.90;;;;;;5102057;28;20213;-79
2021/04/12 05:53:41;;;;;;;12.43;6.13;;;1.30;99.90;;;;;;5103852;28;20216;-79
2021/04/12 05:56:39;;;;;;;13.63;7.53;;;1.30;99.90;;;;;;5101949;28;20205;-81
2021/04/12 05:59:37;;;;;;;12.90;7.80;;;1.30;99.90;;;;;;5102788;28;20247;-81
2021/04/12 06:02:37;;;;;;;13.10;8.40;;;1.40;99.90;;;;;;5101828;28;20218;-80
2021/04/12 06:05:28;;;;;;;15.23;8.60;;;1.40;99.90;;;;;;5101574;28;20225;-80
2021/04/12 06:08:36;;;;;;;14.70;9.03;;;1.40;99.90;;;;;;5103066;28;20713;-80
2021/04/12 06:11:52;;;;;;;19.43;10.80;;;1.40;99.90;;;;;;5098651;28;20204;-80
2021/04/12 06:15:04;;;;;;;18.43;11.93;;;1.50;99.90;;;;;;5097753;28;20224;-80
2021/04/12 06:17:59;;;;;;;17.77;11.73;;;1.50;99.90;;;;;;5061402;28;20217;-80
2021/04/12 06:21:27;;;;;;;18.00;11.30;;;1.50;99.90;;;;;;5105196;28;20227;-80
2021/04/12 06:24:49;;;;;;;16.03;10.53;;;1.60;99.90;;;;;;5099756;28;20244;-80
2021/04/12 06:28:22;;;;;;;21.47;11.83;;;1.60;99.90;;;;;;4996843;28;20748;-81
2021/04/12 06:31:27;;;;;;;18.57;11.27;;;1.60;99.90;;;;;;5098073;28;20216;-80
2021/04/12 06:34:56;;;;;;;16.63;11.90;;;1.70;99.90;;;;;;5099384;28;20217;-80
2021/04/12 06:38:18;;;;;;;19.87;11.73;;;1.70;99.90;;;;;;5102162;28;20791;-80
2021/04/12 06:41:24;;;;;;;15.53;9.43;;;1.70;99.90;;;;;;5099284;28;20312;-80
2021/04/12 06:44:48;;;;;;;15.87;10.97;;;1.80;99.90;;;;;;5103983;28;20263;-80
2021/04/12 06:48:06;;;;;;;16.20;10.37;;;1.80;99.90;;;;;;5125068;28;20209;-80
2021/04/12 06:51:25;;;;;;;16.57;11.47;;;1.80;99.90;;;;;;5113141;28;20213;-80
2021/04/12 06:54:55;;;;;;;17.07;9.67;;;1.90;99.90;;;;;;5113282;28;20266;-81
2021/04/12 06:58:33;;;;;;;16.47;8.87;;;1.90;99.90;;;;;;5097079;28;20241;-81
2021/04/12 07:01:57;;;;;;;12.63;8.20;;;2.00;99.90;;;;;;5023452;28;20212;-79
2021/04/12 07:05:09;;;;;;;11.83;7.23;;;2.10;99.90;;;;;;5105560;28;20251;-79
2021/04/12 07:08:20;;;;;;;13.40;7.13;;;2.10;99.90;;;;;;5107894;28;20212;-80
2021/04/12 07:11:27;;;;;;;11.23;6.57;;;2.20;99.90;;;;;;5091114;28;20201;-79
2021/04/12 07:14:49;;;;;;;8.83;4.90;;;2.30;99.90;;;;;;5099169;28;20245;-79
2021/04/12 07:18:19;;;;;;;10.00;5.43;;;2.40;99.90;;;;;;5099872;28;20217;-80
2021/04/12 07:21:39;;;;;;;9.13;4.07;;;2.50;99.90;;;;;;5101162;28;20304;-80
2021/04/12 07:25:05;;;;;;;5.47;3.40;;;2.60;99.90;;;;;;5107411;28;20271;-79
2021/04/12 07:28:20;;;;;;;6.90;3.50;;;2.60;99.90;;;;;;5097486;28;20201;-80
2021/04/12 07:31:38;;;;;;;5.27;3.40;;;2.70;99.90;;;;;;5102533;28;20217;-79
2021/04/12 07:35:01;;;;;;;6.30;3.63;;;2.80;99.90;;;;;;5069463;28;20233;-80
2021/04/12 07:38:31;;;;;;;6.83;3.47;;;2.90;99.90;;;;;;5097103;28;20216;-79
2021/04/12 07:41:48;;;;;;;6.40;3.00;;;3.00;99.90;;;;;;5100998;28;20206;-81
2021/04/12 07:45:18;;;;;;;5.27;3.00;;;3.10;99.90;;;;;;5102485;28;20313;-80
2021/04/12 07:48:32;;;;;;;8.87;3.13;;;3.20;99.90;;;;;;5099176;28;20202;-80
2021/04/12 07:51:42;;;;;;;7.23;2.70;;;3.40;99.90;;;;;;5103586;28;20206;-81
2021/04/12 07:54:48;;;;;;;9.70;3.03;;;3.60;99.90;;;;;;5105028;28;20223;-81
2021/04/12 07:58:04;;;;;;;25.20;5.17;;;3.80;99.90;;;;;;5101451;28;20267;-80
2021/04/12 08:01:26;;;;;;;5.93;2.70;;;4.00;99.90;;;;;;5098404;28;20210;-81
2021/04/12 08:04:38;;;;;;;10.27;3.63;;;4.20;99.90;;;;;;5099919;28;20225;-81
2021/04/12 08:08:11;;;;;;;8.03;3.53;;;4.40;99.90;;;;;;5099177;28;20202;-81
2021/04/12 08:11:32;;;;;;;9.03;4.23;;;4.70;99.90;;;;;;5099574;28;20201;-80
2021/04/12 08:15:01;;;;;;;8.73;3.23;;;4.90;99.90;;;;;;5093184;28;20249;-80
2021/04/12 08:18:10;;;;;;;3.97;3.00;;;5.10;99.90;;;;;;5106380;28;20694;-80
2021/04/12 08:21:27;;;;;;;4.77;3.00;;;5.20;99.90;;;;;;5098160;28;20221;-81
2021/04/12 08:24:45;;;;;;;6.47;2.53;;;5.30;99.90;;;;;;5096015;28;20229;-80
2021/04/12 08:28:25;;;;;;;6.27;2.27;;;5.40;99.90;;;;;;5102394;28;20213;-81
2021/04/12 08:31:59;;;;;;;4.23;2.60;;;5.60;99.90;;;;;;5099480;28;20205;-79
2021/04/12 08:35:27;;;;;;;6.60;1.93;;;5.70;99.90;;;;;;5096008;28;20234;-79
2021/04/12 08:38:43;;;;;;;4.43;2.47;;;5.80;99.90;;;;;;5103012;28;20263;-81
2021/04/12 08:41:59;;;;;;;6.33;1.63;;;6.00;99.90;;;;;;5099003;28;20271;-79
2021/04/12 08:45:20;;;;;;;5.03;1.90;;;6.20;99.90;;;;;;5099645;28;20221;-79
2021/04/12 08:48:44;;;;;;;6.03;1.43;;;6.40;99.90;;;;;;5090030;28;20260;-79
2021/04/12 08:52:07;;;;;;;2.70;1.60;;;6.60;99.90;;;;;;5084027;28;20202;-78
2021/04/12 08:55:24;;;;;;;1.97;1.53;;;6.90;99.90;;;;;;5102125;28;20218;-79
2021/04/12 08:58:39;;;;;;;1.90;1.27;;;7.20;99.90;;;;;;5107069;28;20261;-79
2021/04/12 09:02:01;;;;;;;4.73;1.33;;;7.50;99.90;;;;;;5107461;28;20213;-79
2021/04/12 09:05:30;;;;;;;2.13;1.10;;;7.80;99.90;;;;;;5101809;28;20228;-78
2021/04/12 09:08:46;;;;;;;3.57;1.20;;;7.90;99.90;;;;;;5107358;28;20277;-79
2021/04/12 09:11:59;;;;;;;2.07;1.40;;;8.10;99.90;;;;;;5104134;28;20198;-79
2021/04/12 09:15:15;;;;;;;2.47;1.40;;;8.10;99.90;;;;;;5099580;28;20335;-79
2021/04/12 09:18:34;;;;;;;3.90;1.30;;;8.10;99.90;;;;;;5103407;28;20197;-79
2021/04/12 09:21:42;;;;;;;2.70;1.53;;;8.10;99.90;;;;;;5100801;28;20206;-79
2021/04/12 09:24:49;;;;;;;6.13;2.17;;;8.20;99.90;;;;;;5103254;28;20243;-79
2021/04/12 09:28:19;;;;;;;6.13;1.80;;;8.50;99.90;;;;;;5100593;28;20236;-80
2021/04/12 09:31:41;;;;;;;2.57;1.40;;;8.80;99.90;;;;;;5065770;28;20638;-80
2021/04/12 09:34:55;;;;;;;4.07;1.50;;;9.40;99.90;;;;;;5094481;28;20745;-80
2021/04/12 09:38:05;;;;;;;4.30;1.83;;;10.10;99.90;;;;;;5101447;28;20212;-80
2021/04/12 09:41:23;;;;;;;1.90;1.40;;;10.90;99.90;;;;;;5102750;28;20223;-79
2021/04/12 09:44:39;;;;;;;4.43;2.40;;;11.50;99.90;;;;;;5101135;28;20224;-80
2021/04/12 09:47:48;;;;;;;7.80;3.33;;;11.90;99.90;;;;;;5102496;28;20192;-80
2021/04/12 09:50:57;;;;;;;6.83;4.03;;;12.10;99.90;;;;;;5106220;28;20213;-80
2021/04/12 09:54:05;;;;;;;5.30;4.80;;;12.20;99.90;;;;;;5100069;28;20217;-79
2021/04/12 09:57:24;;;;;;;4.83;3.83;;;12.20;99.90;;;;;;5098347;28;20282;-79
2021/04/12 10:00:27;;;;;;;3.97;3.60;;;12.30;99.90;;;;;;5104530;28;20201;-80
2021/04/12 10:03:37;;;;;;;2.93;2.60;;;12.40;99.90;;;;;;5098599;28;20209;-80
2021/04/12 10:06:55;;;;;;;2.63;2.10;;;12.60;99.90;;;;;;5088944;28;20239;-79
2021/04/12 10:10:15;;;;;;;3.27;2.17;;;12.90;99.90;;;;;;5057008;28;20268;-79
2021/04/12 10:13:19;;;;;;;2.60;2.13;;;13.40;99.90;;;;;;5091165;28;20286;-80
2021/04/12 10:16:11;;;;;;;2.00;1.60;;;13.80;99.90;;;;;;5096951;28;20260;-80
2021/04/12 10:19:09;;;;;;;2.60;1.93;;;14.20;99.90;;;;;;5096074;28;20241;-80
2021/04/12 10:21:57;;;;;;;2.10;1.80;;;14.70;99.90;;;;;;5093888;28;20266;-80
2021/04/12 10:24:52;;;;;;;3.00;1.90;;;15.20;99.90;;;;;;5105242;28;20298;-80
2021/04/12 10:27:42;;;;;;;2.73;1.73;;;15.60;99.90;;;;;;5099175;28;20699;-80
2021/04/12 10:30:31;;;;;;;4.93;2.03;;;15.90;97.40;;;;;;5099976;28;20223;-80
2021/04/12 10:33:28;;;;;;;2.80;1.90;;;16.20;97.80;;;;;;5098518;28;20215;-79
2021/04/12 10:36:24;;;;;;;2.47;2.27;;;16.40;96.00;;;;;;5098739;28;20273;-80
2021/04/12 10:39:18;;;;;;;3.37;1.70;;;16.50;94.90;;;;;;5103115;28;20200;-80
2021/04/12 10:42:26;;;;;;;1.80;1.70;;;16.50;94.60;;;;;;5109648;28;20763;-80
2021/04/12 10:45:15;;;;;;;1.60;1.50;;;16.40;96.20;;;;;;5103462;28;20220;-80
2021/04/12 10:48:06;;;;;;;1.73;1.63;;;16.20;94.20;;;;;;5102948;28;20189;-80
2021/04/12 10:51:05;;;;;;;2.17;1.50;;;16.00;96.30;;;;;;5105579;28;20202;-81
2021/04/12 10:54:32;;;;;;;2.37;1.40;;;16.00;97.50;;;;;;5103535;28;20282;-81
2021/04/12 10:57:34;;;;;;;1.47;1.30;;;16.20;96.00;;;;;;5095842;28;20225;-80
2021/04/12 11:00:33;;;;;;;2.53;1.30;;;16.70;94.90;;;;;;5105482;28;20268;-79
2021/04/12 11:03:42;;;;;;;1.47;1.37;;;17.20;92.90;;;;;;5092626;28;20201;-80
2021/04/12 11:07:03;;;;;;;1.73;1.50;;;17.60;90.10;;;;;;5085382;28;20268;-80
2021/04/12 11:10:06;;;;;;;1.23;1.13;;;18.00;90.70;;;;;;5082088;28;21040;-80
2021/04/12 11:12:56;;;;;;;1.37;0.90;;;18.40;89.50;;;;;;5088131;28;20731;-80
2021/04/12 11:15:56;;;;;;;0.90;0.90;;;18.80;85.10;;;;;;5083959;28;20584;-80
2021/04/12 11:19:10;;;;;;;1.40;1.27;;;19.30;83.90;;;;;;5092195;28;20284;-79
2021/04/12 11:22:28;;;;;;;2.33;1.00;;;19.80;81.80;;;;;;5083635;28;20202;-79
2021/04/12 11:25:19;;;;;;;1.40;1.30;;;20.10;77.50;;;;;;5098913;28;20277;-79
2021/04/12 11:28:25;;;;;;;1.60;1.50;;;20.30;77.90;;;;;;5088740;28;20194;-80
2021/04/12 11:31:34;;;;;;;1.83;1.73;;;20.60;74.60;;;;;;5081697;28;20273;-79
2021/04/12 11:34:27;;;;;;;1.70;1.60;;;21.00;76.90;;;;;;5091614;28;20706;-80
2021/04/12 11:37:21;;;;;;;2.00;1.80;;;21.60;75.80;;;;;;5091003;28;20737;-80
2021/04/12 11:40:14;;;;;;;1.90;1.80;;;21.80;71.70;;;;;;5088102;28;20208;-80
2021/04/12 11:43:03;;;;;;;2.23;1.93;;;22.00;70.40;;;;;;5089318;28;20205;-81
2021/04/12 11:45:53;;;;;;;2.33;1.80;;;22.30;68.30;;;;;;5085117;28;20267;-80
2021/04/12 11:48:48;;;;;;;1.50;1.40;;;22.70;69.50;;;;;;5089364;28;20194;-80
2021/04/12 11:51:41;;;;;;;1.70;1.60;;;23.10;65.80;;;;;;5089200;28;20207;-80
2021/04/12 11:54:35;;;;;;;1.70;1.60;;;23.50;64.40;;;;;;5092953;28;20218;-80
2021/04/12 11:57:41;;;;;;;1.70;1.43;;;23.90;60.00;;;;;;5088780;28;20270;-80
2021/04/12 12:00:32;;;;;;;1.70;1.60;;;24.20;62.40;;;;;;5093787;28;20211;-80
2021/04/12 12:03:38;;;;;;;3.03;1.80;;;24.40;58.70;;;;;;5091213;28;20208;-80
2021/04/12 12:06:35;;;;;;;1.40;1.30;;;24.40;61.00;;;;;;5096330;28;20342;-80
2021/04/12 12:09:35;;;;;;;1.77;1.53;;;24.30;59.60;;;;;;5095733;28;20227;-80
2021/04/12 12:12:33;;;;;;;1.97;1.20;;;24.40;59.80;;;;;;5081689;28;20220;-80
2021/04/12 12:15:23;;;;;;;1.70;1.60;;;24.50;56.80;;;;;;5091249;28;20270;-80
2021/04/12 12:18:17;;;;;;;1.67;1.20;;;24.70;56.20;;;;;;5093643;28;20236;-80
2021/04/12 12:21:13;;;;;;;1.30;1.10;;;24.80;55.80;;;;;;5084461;28;20194;-80
2021/04/12 12:24:07;;;;;;;2.33;1.20;;;24.70;56.40;;;;;;5096587;28;20756;-80
2021/04/12 12:27:00;;;;;;;2.37;1.37;;;24.70;54.60;;;;;;5089679;28;20201;-80
2021/04/12 12:29:48;;;;;;;1.53;1.40;;;24.50;53.00;;;;;;5091744;28;20209;-80
2021/04/12 12:32:53;;;;;;;2.77;1.50;;;24.50;52.40;;;;;;5084307;28;20246;-80
2021/04/12 12:35:51;;;;;;;2.57;1.90;;;24.50;53.00;;;;;;5080844;28;20220;-80
2021/04/12 12:38:58;;;;;;;1.43;1.30;;;24.30;53.70;;;;;;5082345;28;20272;-80
2021/04/12 12:41:46;;;;;;;2.00;1.10;;;24.10;51.60;;;;;;5086418;28;20226;-80
2021/04/12 12:44:33;;;;;;;1.80;1.27;;;23.70;52.60;;;;;;5078024;28;20259;-80
2021/04/12 12:47:25;;;;;;;1.30;1.30;;;23.40;54.40;;;;;;5102794;28;20230;-80
2021/04/12 12:50:20;;;;;;;1.50;1.40;;;23.30;52.20;;;;;;5081080;28;20228;-80
2021/04/12 12:53:09;;;;;;;2.57;1.50;;;23.10;51.40;;;;;;5078480;28;20215;-80
2021/04/12 12:55:58;;;;;;;2.13;1.67;;;23.00;53.10;;;;;;5088352;28;20325;-80
2021/04/12 12:58:57;;;;;;;2.20;1.73;;;22.90;51.90;;;;;;5090211;28;20210;-80
2021/04/12 13:01:44;;;;;;;2.63;1.60;;;23.10;53.30;;;;;;5086704;28;20207;-80
2021/04/12 13:04:32;;;;;;;2.03;1.10;;;23.30;53.10;;;;;;5092268;28;20237;-80
2021/04/12 13:07:21;;;;;;;2.93;1.33;;;23.50;51.90;;;;;;5088531;28;20496;-80
2021/04/12 13:10:10;;;;;;;2.30;1.50;;;23.60;51.70;;;;;;5090333;28;20197;-80
2021/04/12 13:12:55;;;;;;;2.73;1.50;;;23.40;51.50;;;;;;5094117;28;20229;-79
2021/04/12 13:15:41;;;;;;;3.17;1.67;;;23.00;51.50;;;;;;5085956;28;20246;-79
2021/04/12 13:18:32;;;;;;;1.60;1.40;;;22.50;52.80;;;;;;5088971;28;20757;-79
2021/04/12 13:21:21;;;;;;;2.10;1.50;;;21.90;54.50;;;;;;5092981;28;20210;-79
2021/04/12 13:24:15;;;;;;;1.87;1.50;;;21.20;55.90;;;;;;5084857;28;20880;-79
2021/04/12 13:27:05;;;;;;;3.67;2.00;;;20.60;57.40;;;;;;5096114;28;20303;-79
2021/04/12 13:29:54;;;;;;;2.67;1.80;;;20.00;57.70;;;;;;5089012;28;20198;-79
2021/04/12 13:32:51;;;;;;;3.43;2.00;;;19.20;58.80;;;;;;5087776;28;20249;-79
2021/04/12 13:35:40;;;;;;;6.23;2.10;;;18.50;60.40;;;;;;5090640;28;20763;-79
2021/04/12 13:38:30;;;;;;;4.87;1.80;;;17.90;63.20;;;;;;5094112;28;20216;-78
2021/04/12 13:41:20;;;;;;;3.03;1.40;;;17.20;63.40;;;;;;5078397;28;20223;-79
2021/04/12 13:44:33;;;;;;;3.63;1.60;;;16.70;63.70;;;;;;5098734;28;20711;-79
2021/04/12 13:47:25;;;;;;;1.53;1.37;;;16.20;66.30;;;;;;5036048;28;20219;-78
2021/04/12 13:54:24;;;;;;;7.00;1.40;;;15.70;67.30;;;;;;5085806;28;20747;-78
2021/04/12 13:57:21;;;;;;;1.53;1.27;;;15.40;66.10;;;;;;5093418;28;20206;-79
2021/04/12 14:00:22;;;;;;;2.43;1.20;;;15.20;65.90;;;;;;5079132;28;20237;-80
2021/04/12 14:03:14;;;;;;;3.50;1.10;;;15.10;67.50;;;;;;5092941;28;20642;-79
2021/04/12 14:06:04;;;;;;;1.33;1.00;;;14.90;63.90;;;;;;5097017;28;20252;-79
2021/04/12 14:08:52;;;;;;;1.20;1.10;;;14.80;61.90;;;;;;5087224;28;20258;-79
2021/04/12 14:11:44;;;;;;;1.70;1.10;;;14.70;61.40;;;;;;5090314;28;20460;-79
2021/04/12 14:14:33;;;;;;;2.50;1.10;;;14.60;62.50;;;;;;5091208;28;20249;-79
2021/04/12 14:17:23;;;;;;;3.43;1.47;;;14.50;63.10;;;;;;5087500;28;20209;-79
2021/04/12 14:20:13;;;;;;;3.77;1.07;;;14.50;67.00;;;;;;5093978;28;20224;-80
2021/04/12 14:23:02;;;;;;;3.80;1.40;;;14.60;66.70;;;;;;5090694;28;20222;-80
2021/04/12 14:25:55;;;;;;;3.00;1.30;;;14.90;65.60;;;;;;5081558;28;20247;-81
2021/04/12 14:28:45;;;;;;;1.30;1.17;;;15.40;65.30;;;;;;5108664;28;20230;-80
2021/04/12 14:31:33;;;;;;;2.33;1.13;;;15.90;63.70;;;;;;5102951;28;20278;-81
2021/04/12 14:34:25;;;;;;;2.63;1.30;;;16.30;63.80;;;;;;5091504;28;20227;-80
2021/04/12 14:37:16;;;;;;;3.43;1.70;;;16.70;62.60;;;;;;5091876;28;20936;-81
2021/04/12 14:40:19;;;;;;;2.00;1.53;;;16.90;61.40;;;;;;5083348;28;20208;-80
2021/04/12 14:43:10;;;;;;;2.37;1.60;;;16.90;62.40;;;;;;5095311;28;20217;-80
2021/04/12 14:46:12;;;;;;;2.77;1.70;;;16.80;62.50;;;;;;5111371;28;22045;-83
2021/04/12 14:49:13;;;;;;;5.33;2.30;;;16.70;63.40;;;;;;5100585;28;20213;-81
2021/04/12 14:52:09;;;;;;;2.83;2.17;;;16.50;63.50;;;;;;5089517;28;20211;-80
2021/04/12 14:55:01;;;;;;;3.87;2.10;;;16.50;63.70;;;;;;5088830;28;20225;-81
2021/04/12 14:57:48;;;;;;;3.00;2.10;;;16.50;63.80;;;;;;5093308;28;20208;-81
2021/04/12 15:00:36;;;;;;;2.67;2.10;;;16.70;64.10;;;;;;5093321;28;20557;-81
2021/04/12 15:03:24;;;;;;;3.83;1.97;;;16.80;62.70;;;;;;5086703;28;20227;-80
2021/04/12 15:06:11;;;;;;;3.43;2.10;;;16.80;62.20;;;;;;5101404;28;20245;-82
2021/04/12 15:09:01;;;;;;;5.43;2.13;;;16.80;62.70;;;;;;5110520;28;20207;-81
2021/04/12 15:11:56;;;;;;;4.10;1.97;;;16.60;63.40;;;;;;5108723;28;20199;-81
2021/04/12 15:14:46;;;;;;;2.00;1.80;;;16.60;62.30;;;;;;5108538;28;20282;-82
2021/04/12 15:17:34;;;;;;;2.40;1.87;;;16.60;60.30;;;;;;5096813;28;20264;-81
2021/04/12 15:20:23;;;;;;;2.73;1.20;;;16.60;61.10;;;;;;5095137;28;20276;-80
2021/04/12 15:23:14;;;;;;;2.47;1.13;;;16.60;58.60;;;;;;5090169;28;20569;-80
2021/04/12 15:26:17;;;;;;;2.70;1.43;;;16.80;59.00;;;;;;5084849;28;20252;-80
2021/04/12 15:29:27;;;;;;;2.87;1.40;;;17.00;57.10;;;;;;5083672;28;20211;-81
2021/04/12 15:32:24;;;;;;;2.53;1.50;;;17.30;58.40;;;;;;5089645;28;20826;-80
2021/04/12 15:35:32;;;;;;;5.10;2.13;;;17.60;59.20;;;;;;5081661;28;20226;-80
2021/04/12 15:38:21;;;;;;;2.37;2.03;;;17.70;58.50;;;;;;5087176;28;20245;-80
2021/04/12 15:41:10;;;;;;;4.70;1.90;;;17.80;59.00;;;;;;5090636;28;20203;-80
2021/04/12 15:44:06;;;;;;;2.47;1.70;;;17.90;60.00;;;;;;5083418;28;20348;-81
2021/04/12 15:46:53;;;;;;;3.43;1.93;;;17.70;60.60;;;;;;5083876;28;20277;-80
2021/04/12 15:49:41;;;;;;;2.20;1.63;;;17.90;58.20;;;;;;5085481;28;20201;-81
2021/04/12 15:52:32;;;;;;;2.17;1.60;;;18.00;58.50;;;;;;5091105;28;20224;-81
2021/04/12 15:55:21;;;;;;;1.93;1.73;;;17.90;57.70;;;;;;5114750;28;20253;-81
2021/04/12 15:58:12;;;;;;;1.70;1.60;;;17.80;58.40;;;;;;5106691;28;20228;-81
2021/04/12 16:01:07;;;;;;;4.60;2.17;;;17.60;59.20;;;;;;5103683;28;20244;-81
2021/04/12 16:03:56;;;;;;;4.60;1.90;;;17.30;60.30;;;;;;5098121;28;20229;-81
2021/04/12 16:06:43;;;;;;;2.27;1.60;;;17.10;61.30;;;;;;5093968;28;20213;-81